EGPH/EDI METAR and TAF weather

Enter ICAO airport designator
Station Type Date Time Source
EGPH METAR 2021/09/16 21:20 UTC NOAA

EGPH 162120Z 11002KT 9999 -RA FEW025 15/12 Q1012


Station Type Date Time Source
EGPH Decoded METAR 2021/09/16 21:20 UTC NOAA

Edinburgh Airport, United Kingdom (EGPH) 55-57N 003-21W 0M
Sep 16, 2021 - 05:20 PM EDT / 2021.09.16 2120 UTC
Wind: from the ESE (110 degrees) at 2 MPH (2 KT):0
Visibility: greater than 7 mile(s):0
Sky conditions: mostly clear
Weather: light rain
Temperature: 59 F (15 C)
Dew Point: 53 F (12 C)
Relative Humidity: 82%
Pressure (altimeter): 29.88 in. Hg (1012 hPa)
ob: EGPH 162120Z 11002KT 9999 -RA FEW025 15/12 Q1012
cycle: 21

Station Type Date Time Source
EGPH TAF 2021/09/16 18:09 UTC NOAA

TAF EGPH 161657Z 1618/1718 21006KT 9999 FEW020 SCT035
TEMPO 1618/1706 8000 -RA PROB30
TEMPO 1621/1706 4000 RADZ BKN009 PROB30
TEMPO 1706/1718 8000 -RA

Example: see airport list